Time;durP1;ratioP1;P1;durP2;ratioP2;P2;SDS_P1;SDS_P2;PMS_P1;PMS_P2;Temp;Humidity;BMP_temperature;BMP_pressure;BME280_temperature;BME280_humidity;BME280_pressure;Samples;Min_cycle;Max_cycle;Signal;HPM_P1;HPM_P2
2021/10/15 00:01:15;;;;;;;53.00;28.67;;;;;;;2.91;92.06;101255.91;5010149;28;20494;-62
2021/10/15 00:03:40;;;;;;;47.17;28.80;;;;;;;2.83;93.05;101244.75;5011107;28;20026;-61
2021/10/15 00:06:06;;;;;;;46.80;28.08;;;;;;;2.84;93.27;101240.34;5011258;28;20396;-62
2021/10/15 00:08:31;;;;;;;47.50;28.38;;;;;;;2.93;93.70;101247.91;5011016;28;20026;-62
2021/10/15 00:10:57;;;;;;;50.38;28.27;;;;;;;2.98;93.04;101253.84;5010738;28;20032;-61
2021/10/15 00:13:22;;;;;;;50.75;28.08;;;;;;;2.91;91.76;101245.31;5010998;28;20041;-61
2021/10/15 00:15:48;;;;;;;49.47;28.40;;;;;;;2.92;91.39;101246.16;5010705;28;20033;-62
2021/10/15 00:18:13;;;;;;;48.85;28.38;;;;;;;2.91;91.68;101245.31;5009746;28;20022;-62
2021/10/15 00:20:39;;;;;;;54.97;29.02;;;;;;;2.89;92.30;101239.22;5010736;28;20034;-62
2021/10/15 00:23:04;;;;;;;50.15;28.00;;;;;;;2.85;91.95;101239.41;5010680;28;20133;-63
2021/10/15 00:25:30;;;;;;;52.25;26.27;;;;;;;2.77;91.81;101223.81;5010702;28;20029;-64
2021/10/15 00:27:55;;;;;;;51.63;28.60;;;;;;;2.82;91.96;101229.81;5006599;28;20058;-63
2021/10/15 00:30:21;;;;;;;49.22;27.48;;;;;;;2.80;92.85;101230.81;4990983;28;20089;-64
2021/10/15 00:32:46;;;;;;;47.83;27.88;;;;;;;2.81;93.38;101230.75;4991220;28;20026;-63
2021/10/15 00:35:12;;;;;;;48.13;26.23;;;;;;;2.78;93.22;101228.22;4990831;28;20081;-62
2021/10/15 00:37:37;;;;;;;53.60;27.73;;;;;;;2.81;93.60;101230.75;4990740;28;20046;-64
2021/10/15 00:40:03;;;;;;;42.63;24.70;;;;;;;2.79;93.36;101231.69;4990745;28;20038;-63
2021/10/15 00:42:28;;;;;;;47.10;26.33;;;;;;;2.77;93.73;101226.47;4990880;28;20049;-64
2021/10/15 00:44:54;;;;;;;47.60;26.52;;;;;;;2.77;92.31;101220.34;4990738;28;20269;-63
2021/10/15 00:47:19;;;;;;;42.70;26.27;;;;;;;2.77;91.95;101215.88;4990628;28;20433;-62
2021/10/15 00:49:45;;;;;;;47.13;25.75;;;;;;;2.79;91.87;101221.09;4990857;28;20199;-63
2021/10/15 00:52:10;;;;;;;48.10;25.75;;;;;;;2.77;92.54;101220.34;4990633;28;20077;-63
2021/10/15 00:54:36;;;;;;;47.22;25.88;;;;;;;2.68;92.51;101210.13;4990451;28;20018;-63
2021/10/15 00:57:02;;;;;;;49.42;27.33;;;;;;;2.74;92.96;101226.59;4990504;28;20050;-64
2021/10/15 00:59:28;;;;;;;48.42;27.13;;;;;;;2.72;93.02;101217.00;4990354;28;20105;-63
2021/10/15 01:01:53;;;;;;;46.83;26.10;;;;;;;2.74;92.89;101220.47;4990259;28;20046;-64
2021/10/15 01:04:19;;;;;;;45.80;27.17;;;;;;;2.71;92.13;101224.06;4990394;28;20042;-64
2021/10/15 01:06:44;;;;;;;47.35;26.65;;;;;;;2.72;91.91;101227.59;4990758;28;20030;-64
2021/10/15 01:09:10;;;;;;;47.03;25.73;;;;;;;2.73;93.44;101221.34;4990190;28;20034;-64
2021/10/15 01:11:35;;;;;;;43.50;26.65;;;;;;;2.73;93.68;101218.72;4989871;28;20319;-62
2021/10/15 01:14:02;;;;;;;43.88;23.90;;;;;;;2.71;93.98;101224.06;5010768;28;20076;-63
2021/10/15 01:16:30;;;;;;;39.90;23.08;;;;;;;2.69;94.27;101222.41;5009702;28;21931;-63
2021/10/15 01:18:57;;;;;;;40.95;23.23;;;;;;;2.69;93.25;101214.47;5009635;28;20479;-63
2021/10/15 01:21:23;;;;;;;44.03;24.20;;;;;;;2.69;91.83;101214.47;5009845;28;20112;-64
2021/10/15 01:23:49;;;;;;;41.30;23.35;;;;;;;2.60;91.37;101210.41;5009620;28;20572;-64
2021/10/15 01:26:14;;;;;;;39.10;21.33;;;;;;;2.58;91.61;101203.47;5009150;28;20049;-65
2021/10/15 01:28:40;;;;;;;39.72;22.55;;;;;;;2.56;92.45;101205.31;5007183;28;20044;-64
2021/10/15 01:31:06;;;;;;;44.25;22.52;;;;;;;2.50;92.22;101200.25;5008637;28;20072;-61
2021/10/15 01:33:32;;;;;;;39.70;22.25;;;;;;;2.50;92.18;101200.25;5008718;28;20053;-61
2021/10/15 01:35:57;;;;;;;39.30;22.27;;;;;;;2.49;91.65;101209.13;5008190;28;20105;-62
2021/10/15 01:38:23;;;;;;;35.75;21.67;;;;;;;2.34;91.88;101176.22;5008438;28;20475;-61
2021/10/15 01:40:49;;;;;;;42.17;23.20;;;;;;;2.39;91.71;101188.34;5008356;28;20064;-63
2021/10/15 01:43:24;;;;;;;37.75;22.88;;;;;;;2.44;92.04;101196.09;5008301;28;20030;-62
2021/10/15 01:45:49;;;;;;;37.15;21.45;;;;;;;2.46;92.11;101209.25;5008546;28;20677;-60
2021/10/15 01:48:15;;;;;;;42.83;21.90;;;;;;;2.32;91.71;101189.50;5008406;28;20030;-65
2021/10/15 01:50:41;;;;;;;34.28;20.85;;;;;;;2.34;92.08;101190.31;5008153;28;20033;-62
2021/10/15 01:53:06;;;;;;;38.25;23.38;;;;;;;2.32;92.64;101194.81;5008614;28;20044;-64
2021/10/15 01:55:32;;;;;;;38.70;21.50;;;;;;;2.35;93.73;101199.97;5008168;28;20075;-64
2021/10/15 01:57:57;;;;;;;39.35;21.63;;;;;;;2.31;93.66;101195.72;5007645;28;20022;-65
2021/10/15 02:00:23;;;;;;;37.00;21.05;;;;;;;2.28;93.98;101185.25;5007805;28;20034;-64
2021/10/15 02:02:48;;;;;;;39.58;21.67;;;;;;;2.33;93.86;101187.72;5008186;28;20533;-64
2021/10/15 02:05:16;;;;;;;35.00;19.80;;;;;;;2.35;92.84;101185.88;4993090;28;20034;-61
2021/10/15 02:07:43;;;;;;;40.28;21.30;;;;;;;2.31;91.78;101181.63;5007791;28;20559;-62
2021/10/15 02:10:10;;;;;;;38.45;20.88;;;;;;;2.31;90.68;101185.16;5008025;28;20838;-64
2021/10/15 02:12:36;;;;;;;43.85;22.30;;;;;;;2.29;90.68;101183.50;5008129;28;20034;-61
2021/10/15 02:15:03;;;;;;;45.63;21.50;;;;;;;2.31;90.25;101197.50;5007862;28;20026;-63
2021/10/15 02:17:29;;;;;;;37.03;20.40;;;;;;;2.22;90.27;101176.69;5023025;28;20026;-63
2021/10/15 02:19:54;;;;;;;36.95;19.92;;;;;;;2.24;90.65;101190.75;4989065;28;20048;-64
2021/10/15 02:22:20;;;;;;;32.10;20.27;;;;;;;2.22;91.33;101184.63;4988751;28;20472;-63
2021/10/15 02:24:45;;;;;;;36.65;20.65;;;;;;;2.21;91.92;101189.09;4988038;28;20117;-64
2021/10/15 02:27:11;;;;;;;35.80;20.75;;;;;;;2.14;91.17;101171.75;4947168;28;1207714;-64
2021/10/15 02:29:36;;;;;;;34.65;19.02;;;;;;;2.13;91.88;101177.09;4988442;28;20030;-63
2021/10/15 02:32:02;;;;;;;35.30;20.05;;;;;;;2.18;92.12;101191.84;4988652;28;20084;-62
2021/10/15 02:34:28;;;;;;;36.58;19.65;;;;;;;2.19;92.51;101190.91;4988880;28;20068;-63
2021/10/15 02:36:53;;;;;;;30.30;18.13;;;;;;;2.10;91.76;101172.75;4988698;28;20030;-63
2021/10/15 02:39:19;;;;;;;35.28;19.15;;;;;;;2.20;90.70;101190.00;4988821;28;20069;-63
2021/10/15 02:41:44;;;;;;;31.88;18.58;;;;;;;2.17;90.83;101187.47;4988510;28;20084;-64
2021/10/15 02:44:12;;;;;;;35.83;19.90;;;;;;;2.17;91.27;101191.91;4988754;28;20153;-64
2021/10/15 02:46:38;;;;;;;37.00;19.75;;;;;;;2.10;91.61;101185.97;4989011;28;20026;-63
2021/10/15 02:49:04;;;;;;;38.88;20.00;;;;;;;2.08;91.58;101182.56;4989887;28;20018;-62
2021/10/15 02:51:30;;;;;;;34.58;19.90;;;;;;;2.10;92.44;101198.38;4988151;28;20465;-63
2021/10/15 02:53:56;;;;;;;33.05;20.60;;;;;;;2.09;92.61;101197.50;4988073;28;20030;-63
2021/10/15 02:56:21;;;;;;;36.95;20.33;;;;;;;2.06;91.71;101204.69;4988305;28;20078;-63
2021/10/15 02:58:50;;;;;;;31.65;18.23;;;;;;;2.03;92.01;101199.50;4988399;28;20026;-63
2021/10/15 03:01:15;;;;;;;33.15;20.13;;;;;;;2.08;92.52;101205.50;4988200;28;20038;-63
2021/10/15 03:03:41;;;;;;;30.20;18.33;;;;;;;2.01;93.17;101196.09;5006404;28;20034;-63
2021/10/15 03:06:08;;;;;;;35.22;18.92;;;;;;;2.05;93.38;101201.19;4987684;28;20497;-63
2021/10/15 03:08:33;;;;;;;35.72;19.73;;;;;;;1.98;92.32;101181.19;4988173;28;20041;-63
2021/10/15 03:10:59;;;;;;;34.28;18.60;;;;;;;2.04;92.17;101202.09;4987443;28;20482;-62
2021/10/15 03:13:24;;;;;;;32.92;19.02;;;;;;;1.99;92.20;101193.50;4992272;28;20034;-63
2021/10/15 03:15:50;;;;;;;30.88;17.83;;;;;;;1.99;92.31;101196.13;4991911;28;20086;-64
2021/10/15 03:18:15;;;;;;;33.30;18.55;;;;;;;1.95;91.91;101183.97;4991952;28;20045;-63
2021/10/15 03:20:41;;;;;;;33.47;18.30;;;;;;;2.01;91.33;101198.72;4992151;28;20452;-64
2021/10/15 03:23:07;;;;;;;33.92;18.60;;;;;;;1.99;90.35;101190.84;4992130;28;20110;-64
2021/10/15 03:25:33;;;;;;;30.88;18.63;;;;;;;1.98;90.43;101188.25;5001392;28;20026;-64
2021/10/15 03:27:59;;;;;;;32.45;18.10;;;;;;;1.93;90.76;101180.50;5011261;28;20049;-64
2021/10/15 03:30:25;;;;;;;33.72;18.50;;;;;;;1.92;90.07;101188.50;5011978;28;20058;-63
2021/10/15 03:32:50;;;;;;;31.13;17.95;;;;;;;1.89;90.53;101186.84;5011474;28;20054;-62
2021/10/15 03:35:16;;;;;;;31.92;18.77;;;;;;;1.73;90.84;101166.31;5011934;28;20088;-63
2021/10/15 03:37:41;;;;;;;32.08;18.23;;;;;;;1.86;91.36;101186.09;4993718;28;20029;-63
2021/10/15 03:40:07;;;;;;;31.67;18.67;;;;;;;1.65;91.00;101144.63;4991827;28;20022;-63
2021/10/15 03:42:33;;;;;;;34.92;18.52;;;;;;;1.81;90.92;101180.97;4991830;28;20041;-63
2021/10/15 03:44:59;;;;;;;31.63;18.15;;;;;;;1.82;91.44;101190.66;4991757;28;20539;-62
2021/10/15 03:47:24;;;;;;;30.13;18.05;;;;;;;1.80;91.93;101168.66;4993373;28;20116;-61
2021/10/15 03:49:50;;;;;;;31.60;19.23;;;;;;;1.80;91.71;101167.81;4991916;28;20107;-61
2021/10/15 03:52:15;;;;;;;36.65;19.67;;;;;;;1.78;91.10;101157.28;4991783;28;20034;-62
2021/10/15 03:54:41;;;;;;;33.67;18.98;;;;;;;1.78;91.63;101165.22;4991731;28;20030;-62
2021/10/15 03:57:07;;;;;;;36.10;20.25;;;;;;;1.76;92.35;101166.19;4991779;28;20031;-61
2021/10/15 03:59:32;;;;;;;31.65;19.23;;;;;;;1.76;92.97;101160.91;5007871;28;20041;-62
2021/10/15 04:01:58;;;;;;;34.67;18.52;;;;;;;1.81;93.45;101164.25;5011216;28;20092;-61
2021/10/15 04:04:23;;;;;;;32.72;19.13;;;;;;;1.70;92.09;101142.63;5011152;28;20029;-62
2021/10/15 04:06:49;;;;;;;33.22;19.70;;;;;;;1.75;91.02;101152.16;5011429;28;20125;-62
2021/10/15 04:09:14;;;;;;;31.65;18.80;;;;;;;1.74;90.73;101149.56;5011048;28;20132;-62
2021/10/15 04:11:39;;;;;;;37.92;19.23;;;;;;;1.74;91.45;101155.69;5009470;28;20471;-61
2021/10/15 04:14:05;;;;;;;33.38;18.90;;;;;;;1.67;92.60;101140.09;5010813;28;20464;-61
2021/10/15 04:16:30;;;;;;;35.22;21.35;;;;;;;1.72;93.28;101151.38;5010722;28;20171;-63
2021/10/15 04:18:56;;;;;;;32.40;18.15;;;;;;;1.73;93.43;101153.09;4987625;28;20033;-64
2021/10/15 04:21:21;;;;;;;33.17;18.02;;;;;;;1.78;93.25;101151.16;4990797;28;20577;-62
2021/10/15 04:23:47;;;;;;;35.72;19.40;;;;;;;1.78;92.03;101152.00;4991119;28;20219;-61
2021/10/15 04:26:12;;;;;;;32.67;18.88;;;;;;;1.73;91.10;101145.16;4990891;28;20034;-62
2021/10/15 04:28:38;;;;;;;35.97;19.42;;;;;;;1.73;91.31;101148.69;4988938;28;20037;-62
2021/10/15 04:31:03;;;;;;;31.80;18.00;;;;;;;1.75;91.08;101159.19;4991085;28;20014;-63
2021/10/15 04:33:29;;;;;;;31.48;18.40;;;;;;;1.70;90.04;101147.94;4990970;28;20084;-65
2021/10/15 04:35:54;;;;;;;33.72;19.10;;;;;;;1.69;89.83;101146.22;5005895;28;20046;-62
2021/10/15 04:38:20;;;;;;;35.50;18.33;;;;;;;1.64;89.89;101154.31;4989829;28;20026;-64
2021/10/15 04:40:45;;;;;;;31.23;19.15;;;;;;;1.64;90.43;101153.44;4990754;28;20069;-63
2021/10/15 04:43:11;;;;;;;36.63;20.80;;;;;;;1.60;90.89;101157.13;4990739;28;20033;-63
2021/10/15 04:45:36;;;;;;;39.78;21.58;;;;;;;1.59;91.79;101158.94;4990920;28;20023;-63
2021/10/15 04:48:02;;;;;;;40.15;22.63;;;;;;;1.55;92.33;101148.53;5005717;28;20096;-64
2021/10/15 04:50:28;;;;;;;35.65;20.95;;;;;;;1.59;91.54;101153.66;4989151;28;20045;-64
2021/10/15 04:52:54;;;;;;;49.92;27.52;;;;;;;1.59;91.07;101155.41;4990782;28;20484;-63
2021/10/15 04:55:19;;;;;;;50.88;27.42;;;;;;;1.58;91.12;101162.47;4990895;28;20018;-64
2021/10/15 04:57:45;;;;;;;54.92;30.58;;;;;;;1.56;90.95;101152.88;4990733;28;20033;-63
2021/10/15 05:00:11;;;;;;;57.53;30.35;;;;;;;1.57;91.70;101150.19;4990822;28;20369;-63
2021/10/15 05:02:40;;;;;;;69.60;35.08;;;;;;;1.55;92.12;101141.44;4990659;28;20033;-64
2021/10/15 05:05:07;;;;;;;74.18;37.60;;;;;;;1.57;93.52;101144.91;4990949;28;20380;-64
2021/10/15 05:07:34;;;;;;;72.82;38.10;;;;;;;1.55;94.56;101130.88;4990574;28;20121;-64
2021/10/15 05:10:00;;;;;;;78.63;37.80;;;;;;;1.59;95.50;101145.72;4990478;28;20030;-63
2021/10/15 05:12:25;;;;;;;79.85;38.72;;;;;;;1.58;96.11;101124.63;4991610;28;20038;-63
2021/10/15 05:14:51;;;;;;;76.03;37.45;;;;;;;1.60;96.16;101123.63;5001779;28;20021;-63
2021/10/15 05:17:17;;;;;;;79.32;38.47;;;;;;;1.59;97.06;101123.69;5009763;28;20045;-64
2021/10/15 05:19:42;;;;;;;78.30;37.83;;;;;;;1.57;97.59;101121.09;5008922;28;20384;-64
2021/10/15 05:22:08;;;;;;;80.68;42.28;;;;;;;1.57;98.04;101122.88;5003942;28;20633;-63
2021/10/15 05:24:33;;;;;;;77.15;40.92;;;;;;;1.57;98.38;101122.88;4991090;28;20038;-63
2021/10/15 05:26:59;;;;;;;78.07;40.30;;;;;;;1.59;98.69;101127.22;4990706;28;20050;-64
2021/10/15 05:29:25;;;;;;;77.38;39.15;;;;;;;1.63;98.75;101120.88;4991434;28;20416;-63
2021/10/15 05:31:51;;;;;;;81.45;42.00;;;;;;;1.72;98.69;101128.47;4990591;28;20038;-64
2021/10/15 05:34:17;;;;;;;73.22;38.45;;;;;;;1.74;98.82;101113.38;4989801;28;20038;-65
2021/10/15 05:36:42;;;;;;;79.35;40.63;;;;;;;1.79;98.77;101110.56;4990938;28;20125;-64
2021/10/15 05:39:07;;;;;;;81.32;40.80;;;;;;;1.83;97.50;101105.09;4989826;28;20037;-63
2021/10/15 05:41:33;;;;;;;82.43;40.35;;;;;;;1.85;97.80;101111.19;4989910;28;20038;-64
2021/10/15 05:43:58;;;;;;;89.70;39.90;;;;;;;1.89;97.17;101117.19;4989410;28;20018;-61
2021/10/15 05:46:24;;;;;;;81.88;40.38;;;;;;;1.91;97.86;101110.91;4989737;28;20092;-62
2021/10/15 05:48:49;;;;;;;82.30;40.05;;;;;;;1.93;98.51;101110.84;4989166;28;20085;-63
2021/10/15 05:51:15;;;;;;;79.38;41.35;;;;;;;1.94;98.65;101100.22;4989931;28;20161;-63
2021/10/15 05:53:42;;;;;;;75.97;39.45;;;;;;;1.98;98.85;101101.84;4989564;28;20108;-62
2021/10/15 05:56:36;;;;;;;77.10;39.63;;;;;;;2.04;99.12;101100.72;4989843;28;20029;-61
2021/10/15 05:59:04;;;;;;;76.35;39.22;;;;;;;2.09;98.51;101099.59;4989383;28;20409;-62
2021/10/15 06:01:32;;;;;;;79.80;38.55;;;;;;;2.15;98.50;101109.06;4989775;28;20045;-61
2021/10/15 06:14:26;;;;;;;68.50;37.08;;;;;;;2.38;99.75;101106.34;4988888;28;20037;-63
2021/10/15 06:16:54;;;;;;;81.93;39.40;;;;;;;2.46;100.00;101119.25;4989221;28;20037;-63
2021/10/15 06:19:22;;;;;;;71.72;37.58;;;;;;;2.47;100.00;101105.09;5006015;28;20032;-63
2021/10/15 06:21:48;;;;;;;72.00;38.00;;;;;;;2.61;100.00;101121.28;5008626;28;20387;-63
2021/10/15 06:24:15;;;;;;;70.57;39.03;;;;;;;2.67;100.00;101113.91;5009137;28;20113;-63
2021/10/15 06:26:41;;;;;;;71.32;38.38;;;;;;;2.72;100.00;101114.59;5023620;28;20054;-62
2021/10/15 06:29:07;;;;;;;80.45;38.97;;;;;;;2.81;100.00;101113.31;5008664;28;20474;-62
2021/10/15 06:31:33;;;;;;;72.40;38.45;;;;;;;2.90;100.00;101111.13;5008595;28;20121;-63
2021/10/15 06:33:59;;;;;;;73.72;39.53;;;;;;;3.04;100.00;101110.53;5002229;28;20033;-63
2021/10/15 06:36:24;;;;;;;82.03;39.78;;;;;;;3.10;100.00;101112.91;4989255;28;20349;-62
2021/10/15 06:38:50;;;;;;;71.88;39.33;;;;;;;3.19;100.00;101107.19;4988885;28;20026;-61
2021/10/15 06:41:15;;;;;;;80.10;40.50;;;;;;;3.33;100.00;101107.41;4988579;28;20064;-61
2021/10/15 06:43:41;;;;;;;80.63;41.08;;;;;;;3.47;100.00;101112.94;4988829;28;20033;-62
2021/10/15 06:46:07;;;;;;;76.40;40.42;;;;;;;3.60;100.00;101108.78;4988611;28;20018;-62
2021/10/15 06:48:33;;;;;;;76.63;40.53;;;;;;;3.75;100.00;101110.72;5003899;28;20068;-61
2021/10/15 06:50:58;;;;;;;72.13;39.05;;;;;;;3.90;100.00;101107.34;4996345;28;20457;-62
2021/10/15 06:53:24;;;;;;;70.80;40.28;;;;;;;3.99;100.00;101110.41;5008387;28;20121;-62
2021/10/15 06:55:49;;;;;;;80.40;41.00;;;;;;;4.21;100.00;101113.75;5008344;28;20053;-62
2021/10/15 06:58:15;;;;;;;69.88;39.75;;;;;;;4.38;100.00;101104.94;5007384;28;20025;-62
2021/10/15 07:00:41;;;;;;;71.13;41.28;;;;;;;4.52;100.00;101099.81;5006623;28;20053;-62
2021/10/15 07:03:19;;;;;;;74.47;40.90;;;;;;;4.80;100.00;101101.91;5008477;28;20018;-61
2021/10/15 07:05:46;;;;;;;81.53;45.70;;;;;;;4.98;100.00;101093.81;5007998;28;20120;-63
2021/10/15 07:08:12;;;;;;;82.28;46.58;;;;;;;5.21;100.00;101097.91;5008225;28;20034;-61
2021/10/15 07:10:38;;;;;;;78.72;44.35;;;;;;;5.40;100.00;101099.50;5008505;28;20041;-62
2021/10/15 07:13:04;;;;;;;71.93;42.78;;;;;;;5.60;100.00;101095.75;5008021;28;20034;-62
2021/10/15 07:15:30;;;;;;;73.28;39.35;;;;;;;5.90;100.00;101108.25;4987205;28;20030;-63
2021/10/15 07:17:55;;;;;;;63.15;36.58;;;;;;;6.17;100.00;101093.38;4995087;28;20029;-61
2021/10/15 07:20:23;;;;;;;62.83;35.92;;;;;;;6.58;100.00;101088.31;5006834;28;20088;-63
2021/10/15 07:22:48;;;;;;;59.05;35.15;;;;;;;7.26;100.00;101098.34;5007768;28;20113;-61
2021/10/15 07:25:14;;;;;;;59.38;34.72;;;;;;;8.02;100.00;101078.28;5008051;28;20122;-62
2021/10/15 07:27:39;;;;;;;49.58;31.95;;;;;;;8.97;96.63;101081.56;5007714;28;20084;-61
2021/10/15 07:30:07;;;;;;;43.72;29.92;;;;;;;9.92;86.60;101074.69;5007811;28;20044;-62
2021/10/15 07:32:34;;;;;;;34.95;25.20;;;;;;;10.88;80.13;101077.25;5006626;28;20030;-63
2021/10/15 07:35:01;;;;;;;38.50;26.98;;;;;;;11.75;73.15;101056.81;5007766;28;20034;-63
2021/10/15 07:37:27;;;;;;;31.90;24.30;;;;;;;12.60;68.42;101061.31;5008408;28;20464;-63
2021/10/15 07:39:53;;;;;;;44.70;25.73;;;;;;;13.42;64.03;101056.78;5003603;28;20361;-63
2021/10/15 07:42:18;;;;;;;32.22;23.85;;;;;;;14.12;60.69;101043.25;4988231;28;20041;-62
2021/10/15 07:44:44;;;;;;;29.90;25.40;;;;;;;14.82;57.54;101034.91;4988178;28;20030;-63
2021/10/15 07:47:09;;;;;;;35.20;25.95;;;;;;;15.51;55.13;101047.97;5001158;28;20044;-63
2021/10/15 07:49:35;;;;;;;32.00;23.73;;;;;;;16.11;53.40;101037.53;5007770;28;20034;-63
2021/10/15 07:52:00;;;;;;;25.50;21.33;;;;;;;16.70;51.07;101027.84;5007872;28;20025;-62
2021/10/15 07:54:26;;;;;;;28.67;21.10;;;;;;;17.22;49.45;101029.59;5007981;28;20333;-62
2021/10/15 07:56:52;;;;;;;19.98;17.40;;;;;;;17.55;47.04;101036.94;5008833;28;20053;-64
2021/10/15 07:59:17;;;;;;;20.83;16.13;;;;;;;17.15;47.77;101033.94;5008636;28;20061;-62
2021/10/15 08:01:44;;;;;;;21.25;18.17;;;;;;;16.54;49.11;101041.25;4991952;28;20035;-62
2021/10/15 08:04:10;;;;;;;18.38;16.42;;;;;;;15.86;50.36;101042.69;4991769;28;20074;-63
2021/10/15 08:06:35;;;;;;;18.85;15.35;;;;;;;15.19;51.68;101031.25;4991657;28;20117;-63
2021/10/15 08:09:01;;;;;;;22.00;16.63;;;;;;;14.56;53.44;101037.34;4991768;28;20061;-63
2021/10/15 08:11:26;;;;;;;19.05;16.38;;;;;;;14.08;55.86;101049.91;4991947;28;20137;-63
2021/10/15 08:13:52;;;;;;;19.08;15.30;;;;;;;13.61;56.76;101040.69;4991391;28;20084;-64
2021/10/15 08:16:19;;;;;;;21.80;15.10;;;;;;;13.23;58.38;101048.59;4991408;28;20093;-62
2021/10/15 08:18:46;;;;;;;21.17;16.27;;;;;;;12.91;60.06;101046.97;4991286;28;20034;-64
2021/10/15 08:21:11;;;;;;;18.30;14.82;;;;;;;12.61;60.82;101046.91;4991395;28;20026;-62
2021/10/15 08:23:36;;;;;;;20.85;16.00;;;;;;;12.37;61.97;101057.03;4996371;28;20030;-62
2021/10/15 08:26:02;;;;;;;22.40;16.23;;;;;;;12.14;63.60;101045.50;5011220;28;20041;-64
2021/10/15 08:28:28;;;;;;;23.20;16.60;;;;;;;11.99;64.47;101049.44;5010942;28;20081;-63
2021/10/15 08:30:53;;;;;;;19.33;14.85;;;;;;;11.83;66.27;101051.66;5009271;28;20038;-62
2021/10/15 08:33:19;;;;;;;21.08;16.75;;;;;;;11.63;66.11;101043.50;5010656;28;20038;-62
2021/10/15 08:35:46;;;;;;;24.55;16.33;;;;;;;11.57;67.16;101045.69;5010802;28;20084;-64
2021/10/15 08:38:12;;;;;;;20.67;15.57;;;;;;;11.48;66.87;101046.44;5025778;28;20472;-63
2021/10/15 08:40:37;;;;;;;23.30;15.77;;;;;;;11.44;66.88;101041.41;5010546;28;20032;-66
2021/10/15 08:43:03;;;;;;;19.17;15.70;;;;;;;11.42;66.29;101048.75;5009275;28;20099;-64
2021/10/15 08:45:36;;;;;;;22.33;16.10;;;;;;;11.37;67.26;101051.81;5010774;28;20026;-63
2021/10/15 08:48:03;;;;;;;19.63;15.25;;;;;;;11.37;68.18;101054.50;5010585;28;20028;-63
2021/10/15 08:50:29;;;;;;;22.75;15.90;;;;;;;11.40;67.43;101053.38;5010501;28;20030;-63
2021/10/15 08:52:54;;;;;;;22.23;14.93;;;;;;;11.38;67.40;101031.16;5010449;28;20056;-64
2021/10/15 08:55:20;;;;;;;25.20;17.23;;;;;;;11.55;66.39;101047.63;5010254;28;20034;-63
2021/10/15 08:57:54;;;;;;;21.20;15.38;;;;;;;11.67;65.88;101042.31;5010154;28;20030;-63
2021/10/15 09:00:19;;;;;;;21.50;15.87;;;;;;;11.89;65.38;101045.81;5025239;28;20064;-63
2021/10/15 09:02:44;;;;;;;20.42;14.63;;;;;;;12.10;64.05;101029.75;5010150;28;20765;-63
2021/10/15 09:05:10;;;;;;;19.35;14.43;;;;;;;12.57;62.64;101023.91;5009994;28;20026;-62
2021/10/15 09:07:35;;;;;;;24.98;14.40;;;;;;;13.73;57.86;101023.44;4996739;28;20114;-63
2021/10/15 09:10:16;;;;;;;20.02;13.75;;;;;;;15.72;53.06;101013.44;5005297;28;20437;-63
2021/10/15 09:12:56;;;;;;;16.52;12.27;;;;;;;17.78;46.75;101000.09;5009755;28;20087;-62
2021/10/15 09:15:31;;;;;;;14.60;12.02;;;;;;;19.82;41.83;100997.78;5009926;28;20412;-64
2021/10/15 09:17:56;;;;;;;14.70;10.60;;;;;;;21.66;37.29;100986.34;4991231;28;20054;-64
2021/10/15 09:20:32;;;;;;;11.90;10.45;;;;;;;23.12;34.62;100975.75;4990154;28;20053;-64
2021/10/15 09:22:57;;;;;;;12.48;10.57;;;;;;;24.40;32.25;100971.13;4990088;28;20022;-64
2021/10/15 09:25:31;;;;;;;11.85;10.65;;;;;;;25.57;30.68;100961.19;5003438;28;20041;-63
2021/10/15 09:27:56;;;;;;;11.65;10.45;;;;;;;26.27;29.55;100952.84;5009307;28;20100;-64
2021/10/15 09:30:24;;;;;;;14.13;10.98;;;;;;;26.85;28.48;100948.84;5009621;28;20033;-63
2021/10/15 09:32:52;;;;;;;11.57;10.48;;;;;;;27.38;27.97;100950.06;5009338;28;20092;-63
2021/10/15 09:35:20;;;;;;;12.18;10.98;;;;;;;27.82;27.46;100935.94;5009645;28;20026;-65
2021/10/15 09:37:48;;;;;;;13.00;11.55;;;;;;;28.34;27.21;100939.94;5004928;28;20029;-62
2021/10/15 09:40:20;;;;;;;12.40;11.20;;;;;;;28.62;26.48;100929.09;4990004;28;20606;-63
2021/10/15 09:42:52;;;;;;;13.02;11.77;;;;;;;28.90;26.12;100929.25;4990011;28;20034;-64
2021/10/15 09:45:24;;;;;;;12.07;10.88;;;;;;;29.01;25.76;100909.06;4989646;28;20034;-63
2021/10/15 09:47:57;;;;;;;12.02;10.65;;;;;;;29.38;25.73;100920.72;5002655;28;20391;-63
2021/10/15 09:50:26;;;;;;;11.25;10.15;;;;;;;29.47;25.75;100913.75;5009306;28;20498;-64
2021/10/15 09:53:11;;;;;;;11.35;10.35;;;;;;;29.78;24.89;100916.94;5009117;28;20040;-64
2021/10/15 09:55:43;;;;;;;10.27;9.38;;;;;;;29.68;24.80;100911.19;5009509;28;20506;-64
2021/10/15 09:58:20;;;;;;;11.50;10.50;;;;;;;29.48;25.02;100901.59;5000520;28;20345;-63
2021/10/15 10:00:48;;;;;;;9.40;8.50;;;;;;;29.51;24.96;100903.88;4989373;28;20030;-64
2021/10/15 10:03:18;;;;;;;11.80;9.50;;;;;;;29.96;24.61;100889.09;4989389;28;20034;-64
2021/10/15 10:05:44;;;;;;;10.30;9.27;;;;;;;30.03;24.28;100886.16;4989721;28;20117;-65
2021/10/15 10:08:10;;;;;;;10.48;9.20;;;;;;;29.74;24.62;100892.78;4989544;28;20110;-63
2021/10/15 10:10:37;;;;;;;10.55;9.43;;;;;;;29.24;25.14;100883.38;5010134;28;20044;-66
2021/10/15 10:13:04;;;;;;;9.90;9.00;;;;;;;28.44;25.65;100888.59;5009472;28;20453;-64
2021/10/15 10:15:32;;;;;;;10.02;8.82;;;;;;;27.43;26.99;100900.59;5009137;28;20026;-64
2021/10/15 10:18:13;;;;;;;9.73;8.82;;;;;;;26.01;28.90;100889.75;5009027;28;20025;-63
2021/10/15 10:20:48;;;;;;;10.43;8.63;;;;;;;24.21;31.08;100883.31;5008305;28;20084;-64
2021/10/15 10:23:18;;;;;;;10.23;9.23;;;;;;;22.85;33.28;100903.56;5006870;28;20045;-64
2021/10/15 10:25:44;;;;;;;10.32;9.32;;;;;;;21.56;34.93;100884.78;5007233;28;20033;-63
2021/10/15 10:28:21;;;;;;;11.18;9.75;;;;;;;20.48;37.23;100904.59;5008006;28;20053;-64
2021/10/15 10:30:50;;;;;;;12.27;11.07;;;;;;;19.63;38.61;100911.13;5008560;28;20042;-63
2021/10/15 10:33:17;;;;;;;10.35;9.35;;;;;;;18.89;40.37;100907.97;5008882;28;20065;-64
2021/10/15 10:35:43;;;;;;;10.48;9.27;;;;;;;18.22;41.51;100908.38;4996341;28;20366;-64
2021/10/15 10:38:21;;;;;;;11.13;9.32;;;;;;;17.63;43.34;100905.91;5008046;28;20037;-65
2021/10/15 10:41:02;;;;;;;12.07;9.98;;;;;;;17.10;44.27;100911.59;5008441;28;20104;-64
2021/10/15 10:43:32;;;;;;;10.45;9.18;;;;;;;16.71;45.18;100912.22;5007130;28;20038;-64
2021/10/15 10:46:11;;;;;;;11.38;10.05;;;;;;;16.30;46.06;100902.06;5006276;28;20108;-63
2021/10/15 10:48:49;;;;;;;13.88;10.73;;;;;;;15.99;46.64;100896.19;4988945;28;20388;-63
2021/10/15 10:51:24;;;;;;;9.80;8.80;;;;;;;15.69;46.88;100902.88;4986463;28;20366;-63
2021/10/15 10:53:59;;;;;;;10.00;8.60;;;;;;;15.51;48.03;100914.66;4988467;28;20042;-65
2021/10/15 10:56:39;;;;;;;;;;;;;;;15.28;48.99;100908.75;4989145;28;20045;-63
2021/10/15 10:59:25;;;;;;;11.75;9.65;;;;;;;15.12;49.13;100903.16;4989922;28;19972;-64
2021/10/15 11:01:58;;;;;;;11.05;8.73;;;;;;;15.01;49.97;100907.91;4988119;28;20094;-64
2021/10/15 11:04:32;;;;;;;13.02;10.02;;;;;;;14.94;50.07;100906.78;4987924;28;20033;-64
2021/10/15 11:07:03;;;;;;;12.07;9.60;;;;;;;14.76;50.71;100895.91;4993025;28;20046;-64
2021/10/15 11:09:30;;;;;;;13.63;9.95;;;;;;;14.75;50.89;100899.63;5007293;28;20037;-65
2021/10/15 11:11:56;;;;;;;12.65;10.90;;;;;;;14.70;50.42;100890.28;4988698;28;20026;-63
2021/10/15 11:14:42;;;;;;;12.63;10.23;;;;;;;14.68;50.67;100886.84;4987865;28;20497;-64
2021/10/15 11:17:09;;;;;;;11.95;9.70;;;;;;;14.58;50.93;100877.94;4988486;28;20030;-64
2021/10/15 11:19:35;;;;;;;12.25;9.77;;;;;;;14.51;50.54;100868.72;4989672;28;20068;-65
2021/10/15 11:22:01;;;;;;;14.35;9.98;;;;;;;14.46;51.03;100866.47;5007876;28;20053;-63
2021/10/15 11:24:26;;;;;;;14.05;10.15;;;;;;;14.44;51.22;100859.50;5007988;28;20026;-64